Terminal Aerodrome Forecast
Issued by NWS

Home | Current Version | Previous Version | Text Only | Print | Product List | Glossary On
Versions: 1 2 3 4 5 6 7 8 9 10 11 12 13
000
FTUS45 KABQ 312340
TAFSAF
TAF
KSAF 312340Z 0100/0124 28009G16KT P6SM SCT090 SCT150
     FM010100 32009KT P6SM VCSH BKN080
     FM010500 36007KT P6SM BKN100
     FM012130 25008KT P6SM VCSH SCT090 BKN120=

USA.gov is the U.S. government's official web portal to all federal, state and local government web resources and services.